Time;durP1;ratioP1;P1;durP2;ratioP2;P2;SDS_P1;SDS_P2;PMS_P1;PMS_P2;Temp;Humidity;BMP_temperature;BMP_pressure;BME280_temperature;BME280_humidity;BME280_pressure;Samples;Min_cycle;Max_cycle;Signal;HPM_P1;HPM_P2
2021/11/29 00:01:58;;;;;;;;;18.75;15.75;;;;;5.24;64.87;100438.69;5057246;28;45991;-77
2021/11/29 00:04:23;;;;;;;;;16.50;13.25;;;;;5.26;65.10;100445.72;5051881;28;45609;-77
2021/11/29 00:06:49;;;;;;;;;18.25;15.75;;;;;5.25;64.95;100446.56;5047714;28;45525;-77
2021/11/29 00:09:14;;;;;;;;;22.00;15.50;;;;;5.23;64.61;100445.66;5065100;28;45728;-78
2021/11/29 00:11:40;;;;;;;;;19.25;16.50;;;;;5.16;64.68;100427.09;5026812;28;46700;-77
2021/11/29 00:14:06;;;;;;;;;22.00;15.00;;;;;5.18;65.17;100442.03;5033574;28;45549;-77
2021/11/29 00:16:31;;;;;;;;;19.75;18.75;;;;;5.13;64.86;100438.41;5062287;28;53283;-78
2021/11/29 00:18:56;;;;;;;;;16.25;14.75;;;;;5.16;64.78;100448.03;5068969;28;45499;-76
2021/11/29 00:21:22;;;;;;;;;21.75;17.00;;;;;5.14;64.86;100441.91;5045194;28;57022;-78
2021/11/29 00:23:47;;;;;;;;;24.00;18.00;;;;;5.17;65.16;100448.09;5065020;28;45540;-79
2021/11/29 00:26:16;;;;;;;;;22.75;18.50;;;;;5.12;65.16;100440.97;5048570;28;45569;-76
2021/11/29 00:28:42;;;;;;;;;26.25;18.75;;;;;5.08;64.94;100433.88;5064947;28;45804;-77
2021/11/29 00:31:08;;;;;;;;;16.25;15.00;;;;;5.08;65.00;100432.16;5045990;28;46159;-76
2021/11/29 00:33:34;;;;;;;;;18.50;13.00;;;;;5.11;65.28;100450.53;5047550;28;45530;-78
2021/11/29 00:35:59;;;;;;;;;30.25;18.75;;;;;5.09;65.04;100454.84;5054971;28;62166;-76
2021/11/29 00:38:24;;;;;;;;;18.00;15.00;;;;;5.10;65.28;100458.34;5066865;28;51785;-79
2021/11/29 00:40:50;;;;;;;;;18.25;16.75;;;;;5.09;65.11;100462.72;5045597;28;46498;-77
2021/11/29 00:43:15;;;;;;;;;21.75;15.75;;;;;5.08;64.98;100458.31;5059322;28;45633;-77
2021/11/29 00:45:41;;;;;;;;;21.50;19.50;;;;;5.06;65.38;100456.50;5065813;28;56257;-77
2021/11/29 00:48:06;;;;;;;;;21.00;16.00;;;;;5.05;65.29;100466.06;5065093;28;56796;-77
2021/11/29 00:50:36;;;;;;;;;18.25;18.25;;;;;4.99;65.48;100453.72;5068857;28;46475;-78
2021/11/29 00:53:02;;;;;;;;;18.50;16.00;;;;;5.01;65.33;100464.25;5073661;28;45541;-77
2021/11/29 00:55:27;;;;;;;;;20.25;17.50;;;;;5.01;65.52;100482.56;5072004;28;46084;-78
2021/11/29 00:57:53;;;;;;;;;29.75;21.50;;;;;5.02;65.40;100476.47;5054467;28;56082;-76
2021/11/29 01:00:19;;;;;;;;;23.25;16.75;;;;;4.98;65.64;100475.50;5061728;28;66071;-78
2021/11/29 01:02:44;;;;;;;;;31.25;19.25;;;;;4.98;65.23;100483.34;5046871;28;45547;-76
2021/11/29 01:05:10;;;;;;;;;21.00;16.00;;;;;4.95;65.41;100478.03;5048847;28;45461;-77
2021/11/29 01:07:35;;;;;;;;;21.00;15.25;;;;;4.97;65.52;100483.31;5069565;28;45577;-76
2021/11/29 01:10:01;;;;;;;;;22.00;18.50;;;;;4.92;65.39;100479.69;5036899;28;46073;-77
2021/11/29 01:12:26;;;;;;;;;21.75;19.00;;;;;4.93;65.56;100481.44;5036529;28;45392;-79
2021/11/29 01:14:52;;;;;;;;;29.25;19.75;;;;;4.92;65.43;100482.28;5047862;28;45453;-76
2021/11/29 01:17:17;;;;;;;;;21.25;18.75;;;;;4.95;65.33;100492.81;5075713;27;45540;-76
2021/11/29 01:19:43;;;;;;;;;26.50;18.75;;;;;4.95;65.45;100503.28;5066774;28;47209;-76
2021/11/29 01:22:08;;;;;;;;;21.75;18.25;;;;;4.93;65.37;100492.78;5070330;28;45419;-77
2021/11/29 01:24:34;;;;;;;;;27.75;16.75;;;;;4.90;65.59;100500.56;5065562;28;54130;-77
2021/11/29 01:26:59;;;;;;;;;24.75;16.25;;;;;4.91;65.71;100498.84;5066714;28;45583;-79
2021/11/29 01:29:24;;;;;;;;;24.25;19.25;;;;;4.88;65.52;100498.75;5069181;27;62144;-77
2021/11/29 01:31:50;;;;;;;;;22.50;16.50;;;;;4.88;65.49;100506.59;5069910;27;61044;-78
2021/11/29 01:34:16;;;;;;;;;19.00;18.00;;;;;4.88;65.58;100501.34;5043695;28;45536;-78
2021/11/29 01:36:41;;;;;;;;;23.75;17.25;;;;;4.86;65.71;100510.91;5050742;28;45718;-78
2021/11/29 01:39:07;;;;;;;;;23.25;18.50;;;;;4.80;65.73;100506.38;5028225;28;47317;-77
2021/11/29 01:41:32;;;;;;;;;24.25;18.00;;;;;4.83;65.46;100516.91;5053417;28;45494;-77
2021/11/29 01:43:58;;;;;;;;;22.00;18.25;;;;;4.83;65.77;100523.88;5038279;28;62183;-78
2021/11/29 01:46:23;;;;;;;;;33.25;19.25;;;;;4.84;65.69;100521.28;5069924;28;45954;-76
2021/11/29 01:48:50;;;;;;;;;26.00;18.75;;;;;4.84;65.50;100520.41;5054189;28;46241;-77
2021/11/29 01:51:15;;;;;;;;;21.75;15.00;;;;;4.84;65.63;100520.41;5064698;28;45793;-76
2021/11/29 01:53:43;;;;;;;;;21.50;17.25;;;;;4.84;65.86;100530.88;5067652;28;45861;-76
2021/11/29 01:56:12;;;;;;;;;20.25;17.75;;;;;4.84;65.38;100530.88;5052633;28;45661;-76
2021/11/29 01:58:38;;;;;;;;;21.50;17.75;;;;;4.76;65.69;100516.72;5054353;28;46764;-78
2021/11/29 02:01:30;;;;;;;;;23.25;17.00;;;;;4.81;65.59;100523.84;5044317;28;45585;-78
2021/11/29 02:03:57;;;;;;;;;13.75;11.50;;;;;4.76;65.99;100525.44;5044211;28;45686;-78
2021/11/29 02:06:24;;;;;;;;;23.50;16.00;;;;;4.77;65.38;100536.78;5046698;28;45537;-78
2021/11/29 02:08:53;;;;;;;;;23.25;17.25;;;;;4.73;66.07;100531.44;5065418;28;45380;-77
2021/11/29 02:11:20;;;;;;;;;16.00;14.50;;;;;4.72;65.69;100536.63;5067164;28;45450;-78
2021/11/29 02:13:49;;;;;;;;;15.75;15.00;;;;;4.72;65.90;100531.41;5047102;28;45506;-77
2021/11/29 02:16:17;;;;;;;;;26.00;16.25;;;;;4.65;66.08;100526.84;5053761;28;45684;-76
2021/11/29 02:18:43;;;;;;;;;25.50;16.75;;;;;4.65;66.33;100532.09;5026136;28;67754;-76
2021/11/29 02:21:24;;;;;;;;;20.25;17.75;;;;;4.70;66.08;100544.44;5035320;28;45553;-76
2021/11/29 02:23:54;;;;;;;;;19.25;15.50;;;;;4.65;65.92;100545.16;5052486;28;45597;-76
2021/11/29 02:26:22;;;;;;;;;16.00;14.50;;;;;4.67;66.11;100551.31;5025600;28;46183;-77
2021/11/29 02:28:53;;;;;;;;;21.00;14.50;;;;;4.61;66.19;100544.16;5035740;28;48316;-77
2021/11/29 02:31:26;;;;;;;;;19.50;16.25;;;;;4.64;66.18;100552.13;5061393;28;45637;-76
2021/11/29 02:33:51;;;;;;;;;18.00;16.25;;;;;4.59;66.13;100547.59;5048677;28;45907;-77
2021/11/29 02:36:19;;;;;;;;;20.25;14.00;;;;;4.62;66.07;100551.16;5068026;28;45512;-76
2021/11/29 02:38:45;;;;;;;;;19.25;15.50;;;;;4.63;66.03;100555.53;5049035;28;46082;-76
2021/11/29 02:41:10;;;;;;;;;16.75;13.00;;;;;4.63;65.97;100554.66;5041934;28;63448;-78
2021/11/29 02:43:36;;;;;;;;;15.50;11.75;;;;;4.61;66.01;100552.00;5059359;28;46068;-77
2021/11/29 02:46:01;;;;;;;;;19.50;16.00;;;;;4.55;66.37;100543.09;5048293;28;45768;-77
2021/11/29 02:48:44;;;;;;;;;19.50;14.25;;;;;4.59;66.30;100545.84;5071704;28;63097;-78
2021/11/29 02:51:18;;;;;;;;;16.75;15.00;;;;;4.63;66.33;100560.78;5064215;28;45855;-76
2021/11/29 02:53:44;;;;;;;;;18.50;14.50;;;;;4.66;66.08;100566.13;5063727;28;45495;-77
2021/11/29 02:56:11;;;;;;;;;20.00;17.00;;;;;4.68;65.99;100568.75;5066933;28;46373;-78
2021/11/29 02:58:40;;;;;;;;;14.25;12.00;;;;;4.69;66.59;100568.84;5044740;28;63404;-78
2021/11/29 03:01:09;;;;;;;;;15.00;15.00;;;;;4.72;66.16;100563.69;5009935;28;45471;-78
2021/11/29 03:03:43;;;;;;;;;13.25;9.00;;;;;4.87;66.43;100581.56;5056781;28;59637;-76
2021/11/29 03:06:08;;;;;;;;;16.00;13.25;;;;;4.91;66.39;100575.59;5048216;28;45968;-78
2021/11/29 03:08:36;;;;;;;;;11.00;11.00;;;;;5.06;66.05;100590.84;5009917;28;72746;-77
2021/11/29 03:11:01;;;;;;;;;21.00;11.25;;;;;5.13;65.85;100589.31;5055231;28;45671;-76
2021/11/29 03:13:26;;;;;;;;;13.00;10.25;;;;;5.17;65.80;100585.94;5041240;28;60793;-79
2021/11/29 03:15:52;;;;;;;;;15.50;12.75;;;;;5.17;65.70;100592.06;5066548;28;51743;-76
2021/11/29 03:18:30;;;;;;;;;22.75;12.50;;;;;5.12;65.45;100592.75;5065526;28;59511;-78
2021/11/29 03:20:55;;;;;;;;;15.25;12.00;;;;;5.08;65.40;100598.75;5058804;28;45538;-77
2021/11/29 03:23:21;;;;;;;;;16.75;9.50;;;;;5.05;65.66;100607.38;5068987;28;45388;-79
2021/11/29 03:25:46;;;;;;;;;12.75;10.50;;;;;5.02;65.66;100609.03;5062965;28;53658;-76
2021/11/29 03:28:13;;;;;;;;;13.25;11.00;;;;;4.97;65.84;100598.44;5055186;28;68730;-79
2021/11/29 03:30:39;;;;;;;;;11.00;8.25;;;;;4.96;65.93;100604.50;5066225;28;45577;-77
2021/11/29 03:33:04;;;;;;;;;14.50;10.25;;;;;4.89;65.82;100592.94;5067410;28;59967;-78
2021/11/29 03:35:29;;;;;;;;;13.50;8.75;;;;;4.95;66.18;100606.25;5050412;28;58120;-75
2021/11/29 03:37:55;;;;;;;;;11.00;8.50;;;;;4.87;65.93;100602.50;5065991;28;65236;-76
2021/11/29 03:40:20;;;;;;;;;12.25;11.25;;;;;4.83;65.78;100604.97;5065860;28;45463;-76
2021/11/29 03:42:46;;;;;;;;;10.50;6.25;;;;;4.86;66.14;100612.91;5064553;28;54330;-76
2021/11/29 03:45:11;;;;;;;;;11.75;9.00;;;;;4.90;65.97;100620.91;5062171;28;50412;-76
2021/11/29 03:47:36;;;;;;;;;9.25;8.25;;;;;4.90;66.16;100628.75;5068875;28;64127;-79
2021/11/29 03:50:02;;;;;;;;;10.25;6.75;;;;;4.88;66.09;100630.41;5063640;28;62800;-76
2021/11/29 03:52:27;;;;;;;;;9.75;5.75;;;;;4.82;65.96;100631.97;5070634;28;45544;-76
2021/11/29 03:54:53;;;;;;;;;9.50;8.00;;;;;4.85;66.15;100646.03;5038682;28;45783;-77
2021/11/29 03:57:18;;;;;;;;;9.50;5.00;;;;;4.82;65.93;100653.78;5071318;28;46341;-78
2021/11/29 03:59:43;;;;;;;;;11.50;6.25;;;;;4.82;65.96;100655.50;5037967;28;54984;-79
2021/11/29 04:02:09;;;;;;;;;8.00;8.00;;;;;4.82;66.01;100664.25;5067117;28;45545;-75
2021/11/29 04:04:34;;;;;;;;;12.00;7.50;;;;;4.79;66.12;100658.00;5044441;28;45612;-77
2021/11/29 04:07:00;;;;;;;;;6.25;6.25;;;;;4.79;66.82;100665.88;5066694;28;46417;-76
2021/11/29 04:09:25;;;;;;;;;10.00;6.25;;;;;4.74;66.40;100665.75;5071000;28;63486;-77
2021/11/29 04:11:50;;;;;;;;;8.75;8.00;;;;;4.78;66.23;100675.44;5050433;28;58539;-78
2021/11/29 04:14:16;;;;;;;;;11.25;7.75;;;;;4.77;66.75;100675.41;5061452;28;45515;-77
2021/11/29 04:16:41;;;;;;;;;8.75;6.50;;;;;4.68;65.98;100663.78;5064969;28;62655;-79
2021/11/29 04:19:07;;;;;;;;;9.00;5.00;;;;;4.74;66.18;100678.81;5072518;28;45569;-77
2021/11/29 04:21:32;;;;;;;;;6.00;6.00;;;;;4.70;66.45;100669.97;5059662;28;46021;-77
2021/11/29 04:23:58;;;;;;;;;5.25;5.00;;;;;4.71;66.22;100671.75;5029719;28;45462;-77
2021/11/29 04:26:23;;;;;;;;;5.00;5.00;;;;;4.70;66.54;100683.06;5073181;28;46008;-76
2021/11/29 04:28:54;;;;;;;;;11.25;6.50;;;;;4.70;66.17;100680.44;5059896;28;46031;-76
2021/11/29 04:31:19;;;;;;;;;6.50;6.25;;;;;4.68;66.53;100681.22;5061138;28;45559;-77
2021/11/29 04:33:45;;;;;;;;;9.50;7.00;;;;;4.67;66.49;100674.22;5049448;28;45407;-77
2021/11/29 04:36:10;;;;;;;;;12.25;7.00;;;;;4.65;66.24;100684.63;5071817;28;47356;-76
2021/11/29 04:38:35;;;;;;;;;9.75;5.25;;;;;4.67;66.36;100684.69;5030915;28;45450;-77
2021/11/29 04:41:01;;;;;;;;;11.50;7.50;;;;;4.67;66.36;100685.56;5054317;28;53417;-77
2021/11/29 04:43:26;;;;;;;;;8.00;8.00;;;;;4.68;66.49;100695.19;5067062;28;45662;-77
2021/11/29 04:45:52;;;;;;;;;7.00;5.25;;;;;4.62;66.00;100679.28;5061366;28;61774;-79
2021/11/29 04:48:17;;;;;;;;;6.25;6.25;;;;;4.62;66.33;100691.47;5072632;28;45820;-78
2021/11/29 04:50:42;;;;;;;;;9.75;8.00;;;;;4.66;66.49;100702.09;5069799;28;61152;-78
2021/11/29 04:53:08;;;;;;;;;9.00;7.00;;;;;4.63;66.35;100694.13;5055509;28;52266;-78
2021/11/29 04:55:33;;;;;;;;;8.50;7.00;;;;;4.65;66.43;100700.31;5068832;28;45972;-78
2021/11/29 04:57:59;;;;;;;;;12.50;7.00;;;;;4.68;66.40;100708.25;5043820;28;45459;-76
2021/11/29 05:00:24;;;;;;;;;7.50;7.50;;;;;4.69;66.60;100704.81;5072108;28;45924;-78
2021/11/29 05:02:49;;;;;;;;;8.50;6.25;;;;;4.68;66.28;100713.47;5048727;28;45514;-76
2021/11/29 05:05:15;;;;;;;;;11.00;7.00;;;;;4.64;66.37;100711.63;5064770;28;61869;-78
2021/11/29 05:07:40;;;;;;;;;11.75;8.00;;;;;4.62;66.42;100707.16;5030919;28;45520;-77
2021/11/29 05:10:06;;;;;;;;;8.75;7.00;;;;;4.60;66.50;100721.94;5045215;28;45493;-76
2021/11/29 05:12:32;;;;;;;;;9.00;7.50;;;;;4.57;66.32;100727.94;5036454;28;45621;-76
2021/11/29 05:14:57;;;;;;;;;10.50;5.75;;;;;4.59;66.89;100738.47;5045682;28;53130;-77
2021/11/29 05:17:23;;;;;;;;;9.00;6.50;;;;;4.58;66.40;100729.75;5071964;28;60197;-77
2021/11/29 05:19:48;;;;;;;;;8.00;7.00;;;;;4.56;66.61;100736.63;5063988;28;45872;-77
2021/11/29 05:22:14;;;;;;;;;7.75;7.75;;;;;4.59;66.47;100749.81;5056007;28;46256;-76
2021/11/29 05:24:39;;;;;;;;;7.00;7.00;;;;;4.56;66.59;100752.31;5044390;28;61884;-76
2021/11/29 05:27:05;;;;;;;;;5.00;5.00;;;;;4.60;66.57;100767.28;5021583;28;45607;-77
2021/11/29 05:29:30;;;;;;;;;5.75;5.75;;;;;4.57;66.63;100759.31;5073004;28;47333;-76
2021/11/29 05:31:56;;;;;;;;;9.50;6.00;;;;;4.64;66.62;100763.94;5034743;28;45518;-78
2021/11/29 05:34:21;;;;;;;;;9.50;5.00;;;;;4.68;66.86;100760.56;5069752;27;57422;-76
2021/11/29 05:36:47;;;;;;;;;14.50;6.25;;;;;4.68;66.95;100768.41;5050025;28;58686;-76
2021/11/29 05:39:14;;;;;;;;;8.00;6.75;;;;;4.64;66.55;100763.94;5036978;28;45513;-77
2021/11/29 05:41:40;;;;;;;;;6.50;4.25;;;;;4.68;67.02;100776.25;5064047;28;45414;-76
2021/11/29 05:44:05;;;;;;;;;9.50;5.50;;;;;4.63;66.46;100769.09;5053018;28;46476;-76
2021/11/29 05:46:31;;;;;;;;;5.00;5.00;;;;;4.63;66.62;100784.78;5057162;28;58480;-78
2021/11/29 05:48:57;;;;;;;;;5.00;5.00;;;;;4.55;66.42;100779.31;5050713;28;45966;-79
2021/11/29 05:51:22;;;;;;;;;7.00;6.75;;;;;4.57;66.21;100798.53;5052369;28;45495;-77
2021/11/29 05:53:48;;;;;;;;;5.50;4.75;;;;;4.55;66.38;100804.56;5053450;28;45512;-76
2021/11/29 05:56:14;;;;;;;;;8.50;5.00;;;;;4.45;66.13;100791.16;5061707;28;45428;-76
2021/11/29 05:58:39;;;;;;;;;8.00;6.25;;;;;4.46;66.50;100794.66;5069778;28;45503;-76
2021/11/29 06:01:05;;;;;;;;;9.00;5.00;;;;;4.48;66.55;100800.84;5042642;28;45367;-78
2021/11/29 06:03:30;;;;;;;;;7.00;7.00;;;;;4.49;66.74;100810.47;5058692;28;46065;-76
2021/11/29 06:05:56;;;;;;;;;8.25;6.25;;;;;4.51;67.14;100813.13;5065411;28;45450;-77
2021/11/29 06:08:21;;;;;;;;;7.75;5.75;;;;;4.51;66.54;100821.84;5072102;28;45504;-77
2021/11/29 06:10:47;;;;;;;;;14.00;7.00;;;;;4.47;67.11;100818.25;5067902;28;50840;-78
2021/11/29 06:13:12;;;;;;;;;8.50;6.00;;;;;4.44;66.30;100815.53;5064349;28;46487;-77
2021/11/29 06:15:37;;;;;;;;;7.75;5.00;;;;;4.45;66.49;100825.16;5062831;28;63472;-79
2021/11/29 06:18:03;;;;;;;;;10.50;7.75;;;;;4.43;67.12;100820.72;5023631;28;47180;-76
2021/11/29 06:20:28;;;;;;;;;8.75;8.00;;;;;4.42;66.93;100837.22;5063402;28;54828;-77
2021/11/29 06:22:54;;;;;;;;;6.00;5.00;;;;;4.40;66.56;100842.38;5060877;28;58235;-76
2021/11/29 06:25:21;;;;;;;;;13.50;8.00;;;;;4.40;66.74;100846.72;5066235;28;45466;-76
2021/11/29 06:27:46;;;;;;;;;5.75;5.75;;;;;4.35;66.95;100841.34;5046287;28;45609;-77
2021/11/29 06:30:12;;;;;;;;;10.25;7.75;;;;;4.40;67.01;100855.47;5044800;28;45522;-77
2021/11/29 06:32:37;;;;;;;;;11.25;7.75;;;;;4.41;66.94;100861.56;5066896;28;47339;-78
2021/11/29 06:35:04;;;;;;;;;14.00;7.25;;;;;4.33;67.52;100855.19;5065003;27;45533;-74
2021/11/29 06:37:29;;;;;;;;;5.00;5.00;;;;;4.39;67.29;100865.88;5079520;27;46021;-75
2021/11/29 06:39:56;;;;;;;;;14.25;7.00;;;;;4.38;67.26;100866.72;5078135;27;45606;-75
2021/11/29 06:42:22;;;;;;;;;12.00;8.00;;;;;4.44;67.07;100878.28;5062357;28;45519;-75
2021/11/29 06:44:47;;;;;;;;;8.25;5.75;;;;;4.46;66.98;100878.31;5064569;27;52302;-75
2021/11/29 06:47:13;;;;;;;;;10.75;8.00;;;;;4.47;67.62;100886.25;5059579;28;61941;-75
2021/11/29 06:49:38;;;;;;;;;7.00;7.00;;;;;4.49;67.29;100899.34;5066185;28;60144;-74
2021/11/29 06:52:05;;;;;;;;;7.00;7.00;;;;;4.42;67.03;100885.19;5055530;28;67617;-77
2021/11/29 06:54:35;;;;;;;;;11.25;7.25;;;;;4.45;67.32;100895.72;5064104;28;45513;-74
2021/11/29 06:57:00;;;;;;;;;6.75;5.25;;;;;4.52;67.13;100902.06;5048222;28;45513;-75
2021/11/29 06:59:26;;;;;;;;;8.75;7.50;;;;;4.51;67.38;100897.69;5059737;28;45767;-76
2021/11/29 07:01:52;;;;;;;;;9.00;8.50;;;;;4.57;67.33;100920.53;5064988;28;45513;-76
2021/11/29 07:04:19;;;;;;;;;8.00;8.00;;;;;4.56;67.34;100929.22;5065957;28;45491;-77
2021/11/29 07:06:46;;;;;;;;;13.50;8.00;;;;;4.56;67.04;100930.13;5065640;28;45560;-76
2021/11/29 07:09:11;;;;;;;;;10.00;7.50;;;;;4.55;67.01;100930.94;5067359;28;45923;-77
2021/11/29 07:11:36;;;;;;;;;19.00;9.50;;;;;4.54;67.22;100942.25;5063960;28;46663;-75
2021/11/29 07:14:02;;;;;;;;;11.75;11.00;;;;;4.54;67.26;100965.78;5058354;28;60627;-76
2021/11/29 07:16:28;;;;;;;;;11.00;11.00;;;;;4.54;67.34;100962.28;5052738;28;45907;-75
2021/11/29 07:18:53;;;;;;;;;9.50;9.50;;;;;4.54;67.05;100970.13;5064301;28;56251;-75
2021/11/29 07:21:19;;;;;;;;;11.75;9.00;;;;;4.54;67.41;100970.13;5064695;28;69489;-77
2021/11/29 07:23:44;;;;;;;;;15.00;11.25;;;;;4.53;67.25;100970.94;5049480;27;47352;-77
2021/11/29 07:26:09;;;;;;;;;12.75;12.00;;;;;4.51;67.23;100977.84;5065220;27;63016;-76
2021/11/29 07:28:35;;;;;;;;;13.50;11.75;;;;;4.51;67.75;100983.97;5063776;28;55187;-77
2021/11/29 07:31:01;;;;;;;;;12.00;9.00;;;;;4.45;67.44;100962.81;5070715;27;59182;-76
2021/11/29 07:33:26;;;;;;;;;12.50;10.50;;;;;4.52;67.53;100977.91;5067597;28;45957;-75
2021/11/29 07:35:52;;;;;;;;;16.50;9.00;;;;;4.49;67.59;100969.06;5061770;28;45517;-74
2021/11/29 07:38:17;;;;;;;;;14.00;9.00;;;;;4.55;67.09;100982.38;5056206;28;45844;-76
2021/11/29 07:40:42;;;;;;;;;11.25;9.00;;;;;4.57;67.44;100984.19;5067287;28;60404;-77
2021/11/29 07:43:09;;;;;;;;;13.75;12.25;;;;;4.56;67.50;100982.41;5052767;28;60982;-73
2021/11/29 07:45:35;;;;;;;;;9.50;9.50;;;;;4.60;67.45;100980.81;5042419;28;45581;-76
2021/11/29 07:48:01;;;;;;;;;14.50;11.75;;;;;4.70;67.41;101001.25;5063765;28;45597;-74
2021/11/29 07:50:26;;;;;;;;;20.00;11.25;;;;;4.79;67.22;101008.53;5062911;28;45671;-74
2021/11/29 07:52:52;;;;;;;;;13.75;11.00;;;;;4.86;67.38;100998.34;5062414;28;45488;-76
2021/11/29 07:55:21;;;;;;;;;13.25;12.75;;;;;4.82;67.14;100978.16;5049199;28;45718;-75
2021/11/29 07:57:47;;;;;;;;;14.25;9.00;;;;;4.94;67.22;101001.25;5068300;28;45464;-76
2021/11/29 08:00:18;;;;;;;;;13.25;8.75;;;;;4.97;67.14;100996.13;5065020;28;64070;-75
2021/11/29 08:02:45;;;;;;;;;16.50;8.75;;;;;5.00;67.11;101009.31;5065579;28;45849;-75
2021/11/29 08:05:10;;;;;;;;;13.50;11.50;;;;;4.99;66.72;101007.53;5070835;28;45819;-72
2021/11/29 08:07:35;;;;;;;;;9.75;9.00;;;;;4.97;66.78;101023.19;5070503;28;54963;-72
2021/11/29 08:10:01;;;;;;;;;15.00;10.25;;;;;4.90;66.75;101017.66;5070491;28;56942;-72
2021/11/29 08:12:26;;;;;;;;;12.75;10.75;;;;;4.95;67.16;101026.56;5066801;28;45560;-72
2021/11/29 08:14:53;;;;;;;;;18.75;11.50;;;;;4.91;67.10;101032.53;5061656;28;45607;-72
2021/11/29 08:17:19;;;;;;;;;13.50;11.50;;;;;4.88;67.00;101048.13;5062076;28;45653;-76
2021/11/29 08:19:45;;;;;;;;;12.00;10.00;;;;;4.84;66.76;101038.38;5062604;28;47428;-75
2021/11/29 08:22:10;;;;;;;;;16.50;8.50;;;;;4.78;66.65;101038.13;5067074;28;45543;-74
2021/11/29 08:24:36;;;;;;;;;11.75;8.00;;;;;4.80;67.15;101053.06;5045652;28;54201;-74
2021/11/29 08:27:02;;;;;;;;;11.25;9.00;;;;;4.70;66.90;101040.47;5062027;28;45652;-73
2021/11/29 08:29:27;;;;;;;;;13.00;10.00;;;;;4.75;67.16;101057.25;5062440;28;46341;-73
2021/11/29 08:31:52;;;;;;;;;20.00;12.25;;;;;4.71;66.97;101052.72;5062162;28;51070;-75
2021/11/29 08:34:18;;;;;;;;;20.25;11.75;;;;;4.70;67.34;101059.69;5064700;28;45443;-74
2021/11/29 08:36:43;;;;;;;;;11.25;9.25;;;;;4.68;67.00;101061.31;5066611;28;45511;-77
2021/11/29 08:39:09;;;;;;;;;16.25;11.50;;;;;4.62;67.26;101052.34;5066186;28;46346;-73
2021/11/29 08:41:34;;;;;;;;;18.25;14.25;;;;;4.65;67.16;101071.69;5064683;28;63432;-73
2021/11/29 08:44:00;;;;;;;;;15.50;14.50;;;;;4.65;67.71;101069.06;5063916;28;46106;-73
2021/11/29 08:46:26;;;;;;;;;19.00;14.50;;;;;4.69;67.67;101067.47;5062216;28;45563;-75
2021/11/29 08:48:51;;;;;;;;;18.50;14.75;;;;;4.72;67.55;101070.19;5065274;28;46663;-73
2021/11/29 08:51:17;;;;;;;;;14.75;14.75;;;;;4.71;67.33;101066.69;5066242;28;61248;-74
2021/11/29 08:53:43;;;;;;;;;19.25;14.50;;;;;4.79;67.58;101072.19;5161384;22;45556;-75
2021/11/29 08:56:08;;;;;;;;;13.50;13.50;;;;;4.80;67.46;101079.22;5052322;28;45669;-74
2021/11/29 08:58:33;;;;;;;;;17.75;14.25;;;;;4.81;67.69;101081.00;5052377;28;58981;-74
2021/11/29 09:00:59;;;;;;;;;16.00;15.00;;;;;4.83;67.74;101087.19;5049319;28;45525;-73
2021/11/29 09:03:25;;;;;;;;;18.75;12.00;;;;;4.83;67.75;101087.19;5052538;28;45446;-74
2021/11/29 09:05:50;;;;;;;;;18.00;11.50;;;;;4.85;67.20;101082.91;5052369;28;45551;-73
2021/11/29 09:08:16;;;;;;;;;20.25;14.25;;;;;4.88;67.64;101082.13;5052753;28;45716;-73
2021/11/29 09:10:41;;;;;;;;;21.25;16.25;;;;;4.92;67.71;101092.78;5052259;28;45759;-73
2021/11/29 09:13:07;;;;;;;;;18.50;13.75;;;;;4.96;67.43;101099.03;5051056;28;45539;-74
2021/11/29 09:15:32;;;;;;;;;18.75;15.75;;;;;5.00;67.87;101103.50;5049394;28;55442;-74
2021/11/29 09:17:58;;;;;;;;;21.00;17.00;;;;;5.04;67.74;101108.03;5050225;28;46507;-75
2021/11/29 09:20:24;;;;;;;;;18.50;16.00;;;;;5.07;67.70;101112.50;5050112;28;53713;-73
2021/11/29 09:22:50;;;;;;;;;24.25;19.25;;;;;5.09;67.50;101114.34;5051720;28;45373;-73
2021/11/29 09:25:15;;;;;;;;;19.50;17.75;;;;;5.12;67.80;101111.84;5051370;28;45431;-75
2021/11/29 09:27:43;;;;;;;;;22.50;20.25;;;;;5.14;67.33;101110.16;5050363;28;52554;-73
2021/11/29 09:30:09;;;;;;;;;23.00;16.75;;;;;5.14;67.80;101110.16;5051248;28;47599;-72
2021/11/29 09:32:38;;;;;;;;;20.75;16.00;;;;;5.19;67.81;101118.19;5050562;28;45575;-73
2021/11/29 09:35:11;;;;;;;;;20.75;16.75;;;;;5.20;67.81;101109.50;5053465;28;45455;-73
2021/11/29 09:37:37;;;;;;;;;17.25;14.00;;;;;5.24;67.78;101117.53;5052115;28;47642;-75
2021/11/29 09:40:04;;;;;;;;;22.25;14.75;;;;;5.28;67.88;101122.88;5052986;28;45525;-73
2021/11/29 09:42:30;;;;;;;;;21.50;16.50;;;;;5.27;67.80;101119.34;5052942;28;45474;-73
2021/11/29 09:44:55;;;;;;;;;20.00;16.00;;;;;5.33;67.95;101134.44;5033206;28;57609;-74
2021/11/29 09:47:21;;;;;;;;;16.00;14.67;;;;;5.31;67.84;101122.97;5051480;28;61648;-74
2021/11/29 09:49:54;;;;;;;;;19.00;12.50;;;;;5.38;67.73;101138.06;5051783;28;45668;-74
2021/11/29 09:52:19;;;;;;;;;12.50;12.00;;;;;5.41;68.07;101135.59;5051168;28;45742;-73
2021/11/29 09:54:44;;;;;;;;;16.50;15.25;;;;;5.43;68.02;101144.38;5049939;28;58363;-75
2021/11/29 09:57:10;;;;;;;;;18.00;13.50;;;;;5.44;67.64;101143.56;5048737;28;46291;-74
2021/11/29 09:59:35;;;;;;;;;13.00;10.75;;;;;5.49;68.02;101156.00;5055594;28;53187;-73
2021/11/29 10:02:00;;;;;;;;;15.75;12.00;;;;;5.53;67.93;101152.63;5049560;28;54687;-72
2021/11/29 10:04:26;;;;;;;;;17.25;14.50;;;;;5.56;67.57;101159.72;5015284;28;58113;-73
2021/11/29 10:07:03;;;;;;;;;14.25;11.50;;;;;5.58;67.76;101142.31;5031851;28;46657;-72
2021/11/29 10:09:38;;;;;;;;;20.75;12.25;;;;;5.63;67.93;101160.81;5034262;28;45431;-73
2021/11/29 10:12:10;;;;;;;;;17.00;11.50;;;;;5.67;67.77;101160.09;5051949;28;45399;-73
2021/11/29 10:14:36;;;;;;;;;12.00;9.50;;;;;5.67;67.84;101157.47;5047403;28;45980;-73
2021/11/29 10:17:01;;;;;;;;;19.25;14.00;;;;;5.74;67.74;101165.59;5049909;28;45960;-72
2021/11/29 10:19:26;;;;;;;;;15.75;12.25;;;;;5.80;67.82;101159.69;5050402;28;45412;-72
2021/11/29 10:21:52;;;;;;;;;15.75;11.00;;;;;5.81;67.58;101156.25;5049481;28;45569;-73
2021/11/29 10:24:19;;;;;;;;;20.00;13.50;;;;;5.89;67.79;101156.50;5052048;28;45640;-73
2021/11/29 10:26:49;;;;;;;;;23.25;14.75;;;;;5.90;67.70;101159.19;5032555;28;46658;-71
2021/11/29 10:29:14;;;;;;;;;17.00;12.50;;;;;5.97;67.58;101155.09;5045391;28;45444;-72
2021/11/29 10:31:47;;;;;;;;;15.25;12.00;;;;;5.97;67.66;101150.75;5050912;28;45434;-72
2021/11/29 10:34:15;;;;;;;;;12.00;11.25;;;;;6.07;67.45;101157.16;5054934;28;45892;-72
2021/11/29 10:36:49;;;;;;;;;13.00;11.25;;;;;6.08;67.69;101152.84;5049889;28;45568;-72
2021/11/29 10:39:14;;;;;;;;;16.00;12.50;;;;;6.17;67.61;101161.88;5050975;28;45680;-71
2021/11/29 10:41:42;;;;;;;;;16.50;15.00;;;;;6.18;67.58;101155.84;5050488;28;45666;-71
2021/11/29 10:44:11;;;;;;;;;17.75;13.00;;;;;6.22;67.41;101152.44;5050523;28;45755;-71
2021/11/29 10:46:41;;;;;;;;;13.75;12.25;;;;;6.31;67.34;101159.75;5050022;28;46943;-73
2021/11/29 10:49:09;;;;;;;;;17.25;16.00;;;;;6.34;67.29;101156.31;5050160;28;45561;-72
2021/11/29 10:51:37;;;;;;;;;16.00;12.00;;;;;6.40;67.33;101164.41;5049741;28;45520;-72
2021/11/29 10:54:10;;;;;;;;;14.50;13.00;;;;;6.45;67.27;101165.47;5049833;28;45984;-71
2021/11/29 10:56:37;;;;;;;;;20.25;14.50;;;;;6.51;67.45;101157.78;5049578;28;47673;-72
2021/11/29 10:59:05;;;;;;;;;13.00;13.00;;;;;6.61;67.28;101172.09;5031078;28;45704;-72
2021/11/29 11:01:31;;;;;;;;;9.25;7.00;;;;;6.71;67.06;101169.81;5051480;28;45431;-72
2021/11/29 11:03:57;;;;;;;;;16.25;9.00;;;;;6.76;67.24;101162.06;5050602;28;45482;-72
2021/11/29 11:06:34;;;;;;;;;7.75;7.75;;;;;6.86;66.87;101166.75;5050225;28;47271;-72
2021/11/29 11:08:59;;;;;;;;;8.50;6.00;;;;;6.90;66.86;101181.78;5048205;28;45735;-72
2021/11/29 11:11:38;;;;;;;;;15.50;10.25;;;;;6.97;66.79;101183.75;5050128;28;45590;-72
2021/11/29 11:14:03;;;;;;;;;13.50;7.00;;;;;7.02;66.68;101181.25;5049897;28;45825;-72
2021/11/29 11:16:58;;;;;;;;;8.75;6.00;;;;;7.01;66.69;101174.22;5051350;28;46391;-72
2021/11/29 11:19:29;;;;;;;;;11.00;10.00;;;;;6.99;66.51;101171.56;5030030;28;45435;-71